Time,TemperatureF,DewpointF,PressureIn,WindDirection,WindDirectionDegrees,WindSpeedMPH,WindSpeedGustMPH,Humidity,HourlyPrecipIn,Conditions,Clouds,dailyrainin,SoftwareType,DateUTC
2013-07-08 00:00:00,76.8,71.2,29.89,West,270,0.0,0.0,83,0.00,,,0.01,Wunderground v.1.15,2013-07-08 04:00:00,
2013-07-08 00:30:00,76.6,71.4,29.88,West,270,0.0,0.0,84,0.00,,,0.00,Wunderground v.1.15,2013-07-08 04:30:00,
2013-07-08 01:00:00,76.2,71.4,29.88,West,269,0.0,0.0,85,0.00,,,0.00,Wunderground v.1.15,2013-07-08 05:00:00,
2013-07-08 01:30:00,76.5,71.7,29.89,West,267,0.0,0.0,85,0.00,,,0.00,Wunderground v.1.15,2013-07-08 05:30:00,
2013-07-08 02:00:00,76.3,71.5,29.89,WSW,256,0.0,0.0,85,0.00,,,0.00,Wunderground v.1.15,2013-07-08 06:00:00,
2013-07-08 02:30:00,75.8,71.0,29.89,WSW,256,0.0,0.0,85,0.00,,,0.00,Wunderground v.1.15,2013-07-08 06:30:00,
2013-07-08 03:00:00,75.9,71.4,29.88,SE,140,0.0,0.0,86,0.00,,,0.00,Wunderground v.1.15,2013-07-08 07:00:00,
2013-07-08 03:30:00,76.2,71.7,29.88,SE,139,0.0,1.0,86,0.00,,,0.00,Wunderground v.1.15,2013-07-08 07:30:00,
2013-07-08 04:00:00,76.2,71.4,29.87,WSW,258,0.0,0.0,85,0.00,,,0.00,Wunderground v.1.15,2013-07-08 08:00:00,
2013-07-08 04:30:00,75.6,71.1,29.88,WSW,258,0.0,0.0,86,0.00,,,0.00,Wunderground v.1.15,2013-07-08 08:30:00,
2013-07-08 05:00:00,75.1,70.6,29.87,WSW,257,0.0,0.0,86,0.00,,,0.00,Wunderground v.1.15,2013-07-08 09:00:00,
2013-07-08 05:30:00,75.1,70.6,29.88,West,259,0.0,0.0,86,0.00,,,0.00,Wunderground v.1.15,2013-07-08 09:30:00,
2013-07-08 06:00:00,75.7,71.2,29.88,West,267,0.0,0.0,86,0.00,,,0.00,Wunderground v.1.15,2013-07-08 10:00:00,
2013-07-08 06:30:00,76.0,71.2,29.89,West,260,1.0,1.0,85,0.00,,,0.00,Wunderground v.1.15,2013-07-08 10:30:00,
2013-07-08 07:00:00,76.9,71.7,29.89,West,274,1.0,1.0,84,0.00,,,0.00,Wunderground v.1.15,2013-07-08 11:00:00,
2013-07-08 07:30:00,78.3,72.3,29.90,West,262,2.0,5.0,82,0.00,,,0.00,Wunderground v.1.15,2013-07-08 11:30:00,
2013-07-08 08:00:00,79.9,73.2,29.90,West,269,2.0,2.0,80,0.00,,,0.00,Wunderground v.1.15,2013-07-08 12:00:00,
2013-07-08 08:30:00,81.5,73.6,29.90,WSW,256,2.0,2.0,77,0.00,,,0.00,Wunderground v.1.15,2013-07-08 12:30:00,
2013-07-08 09:00:00,81.6,73.7,29.90,WSW,252,2.0,5.0,77,0.00,,,0.00,Wunderground v.1.15,2013-07-08 13:00:00,
2013-07-08 09:30:00,82.2,74.3,29.90,West,280,2.0,3.0,77,0.00,,,0.00,Wunderground v.1.15,2013-07-08 13:30:00,
2013-07-08 10:00:00,83.3,74.5,29.91,West,274,1.0,2.0,75,0.00,,,0.00,Wunderground v.1.15,2013-07-08 14:00:00,
2013-07-08 10:30:00,84.5,75.7,29.91,WSW,243,2.0,2.0,75,0.00,,,0.00,Wunderground v.1.15,2013-07-08 14:30:00,
2013-07-08 11:00:00,85.0,75.0,29.91,WSW,238,1.0,1.0,72,0.00,,,0.00,Wunderground v.1.15,2013-07-08 15:00:00,
2013-07-08 11:30:00,84.4,74.8,29.92,SSE,155,0.0,0.0,73,0.00,,,0.00,Wunderground v.1.15,2013-07-08 15:30:00,
2013-07-08 12:00:00,83.0,73.9,29.93,SE,139,0.0,0.0,74,0.00,,,0.00,Wunderground v.1.15,2013-07-08 16:00:00,
2013-07-08 12:30:00,85.8,74.4,29.93,ESE,122,1.0,1.0,69,0.00,,,0.00,Wunderground v.1.15,2013-07-08 16:30:00,
2013-07-08 13:00:00,86.4,76.3,29.93,South,173,0.0,1.0,72,0.00,,,0.00,Wunderground v.1.15,2013-07-08 17:00:00,
2013-07-08 13:30:00,89.2,75.0,29.93,ESE,120,1.0,1.0,63,0.00,,,0.00,Wunderground v.1.15,2013-07-08 17:30:00,
2013-07-08 14:00:00,86.1,75.6,29.93,SE,133,0.0,1.0,71,0.00,,,0.00,Wunderground v.1.15,2013-07-08 18:00:00,
2013-07-08 14:30:00,86.8,74.5,29.93,West,264,1.0,1.0,67,0.00,,,0.00,Wunderground v.1.15,2013-07-08 18:30:00,
2013-07-08 15:00:00,86.2,74.8,29.93,SSE,148,1.0,1.0,69,0.00,,,0.00,Wunderground v.1.15,2013-07-08 19:00:00,
2013-07-08 15:30:00,87.3,74.5,29.93,ESE,110,1.0,1.0,66,0.00,,,0.00,Wunderground v.1.15,2013-07-08 19:30:00,
2013-07-08 16:30:00,86.1,71.6,29.93,ESE,104,1.0,2.0,62,0.00,,,0.00,Wunderground v.1.15,2013-07-08 20:30:00,
2013-07-08 17:00:00,84.3,70.3,29.94,SE,128,1.0,2.0,63,0.00,,,0.00,Wunderground v.1.15,2013-07-08 21:00:00,
2013-07-08 17:30:00,80.4,68.4,29.94,SSE,165,1.0,1.0,67,0.00,,,0.00,Wunderground v.1.15,2013-07-08 21:30:00,
2013-07-08 18:00:00,77.0,66.9,29.95,NE,44,1.0,1.0,71,0.00,,,0.00,Wunderground v.1.15,2013-07-08 22:00:00,
2013-07-08 18:30:00,73.5,65.8,29.96,SE,129,1.0,1.0,77,0.00,,,0.00,Wunderground v.1.15,2013-07-08 22:30:00,
2013-07-08 19:30:00,73.1,66.2,29.98,NNE,32,0.0,0.0,79,0.00,,,0.00,Wunderground v.1.15,2013-07-08 23:30:00,
2013-07-08 20:00:00,71.8,65.3,29.99,North,6,0.0,0.0,80,0.00,,,0.00,Wunderground v.1.15,2013-07-09 00:00:00,
2013-07-08 20:30:00,71.3,65.2,29.98,West,281,0.0,0.0,81,0.00,,,0.00,Wunderground v.1.15,2013-07-09 00:30:00,
2013-07-08 22:00:00,70.7,64.9,30.01,East,100,0.0,0.0,82,0.00,,,0.00,Wunderground v.1.15,2013-07-09 02:00:00,
2013-07-08 23:00:00,70.5,64.7,30.02,WSW,242,0.0,0.0,82,0.00,,,0.00,Wunderground v.1.15,2013-07-09 03:00:00,
2013-07-08 23:30:00,70.4,65.0,30.02,West,269,0.0,1.0,83,0.00,,,0.00,Wunderground v.1.15,2013-07-09 03:30:00,